Aviation Digital Data Service (ADDS)

Output produced by TAFs form (2219 UTC 01 October 2014)
found at http://aviationweather.gov/adds/tafs/
 
KELP 011749Z 0118/0218 23011KT P6SM SKC 
     FM011900 25012G22KT P6SM FEW080 
     FM020200 29011KT P6SM SKC 
     FM021200 33012KT P6SM SKC